Time;durP1;ratioP1;P1;durP2;ratioP2;P2;SDS_P1;SDS_P2;PMS_P1;PMS_P2;Temp;Humidity;BMP_temperature;BMP_pressure;BME280_temperature;BME280_humidity;BME280_pressure;Samples;Min_cycle;Max_cycle;Signal;HPM_P1;HPM_P2
2023/12/23 05:31:37;;;;;;;0.10;0.10;;;10.50;87.70;;;;;;5317052;23;20147;-77
2023/12/23 05:34:03;;;;;;;0.10;0.10;;;10.50;87.60;;;;;;4905975;29;20127;-78
2023/12/23 05:36:28;;;;;;;0.10;0.10;;;10.50;87.60;;;;;;4925500;29;20506;-78
2023/12/23 05:38:54;;;;;;;0.10;0.10;;;10.50;87.50;;;;;;4920729;29;20031;-77
2023/12/23 05:41:19;;;;;;;0.10;0.10;;;10.40;87.60;;;;;;4907709;29;20056;-77
2023/12/23 05:43:45;;;;;;;0.10;0.10;;;10.40;87.70;;;;;;4899557;29;20063;-78
2023/12/23 05:46:11;;;;;;;0.10;0.10;;;10.40;87.70;;;;;;4900085;29;20040;-78
2023/12/23 05:48:36;;;;;;;0.10;0.10;;;10.50;87.60;;;;;;4901891;29;20028;-78
2023/12/23 05:51:02;;;;;;;0.10;0.10;;;10.50;87.70;;;;;;4897676;29;20096;-77
2023/12/23 05:53:28;;;;;;;0.10;0.10;;;10.50;87.60;;;;;;4899793;29;20487;-77
2023/12/23 05:55:53;;;;;;;0.10;0.10;;;10.50;87.60;;;;;;4898507;29;20025;-77
2023/12/23 05:58:19;;;;;;;0.10;0.10;;;10.60;87.30;;;;;;4899624;29;20826;-77
2023/12/23 06:00:45;;;;;;;0.15;0.15;;;10.60;87.50;;;;;;4899897;29;20044;-77
2023/12/23 06:03:10;;;;;;;0.10;0.10;;;10.60;87.40;;;;;;4917819;29;20024;-77
2023/12/23 06:05:36;;;;;;;0.10;0.10;;;10.60;87.40;;;;;;4908594;29;20028;-77
2023/12/23 06:08:02;;;;;;;0.10;0.10;;;10.60;87.40;;;;;;4937771;29;20051;-77
2023/12/23 06:10:27;;;;;;;0.08;0.08;;;10.60;87.30;;;;;;4920710;29;20071;-77
2023/12/23 06:12:53;;;;;;;0.10;0.10;;;10.60;87.30;;;;;;4897453;29;20437;-77
2023/12/23 06:15:19;;;;;;;0.10;0.10;;;10.70;87.30;;;;;;4906868;29;20028;-77
2023/12/23 06:17:47;;;;;;;0.10;0.10;;;10.70;87.30;;;;;;4913869;29;20039;-77
2023/12/23 06:20:12;;;;;;;0.00;0.00;;;10.60;87.20;;;;;;4899664;29;20057;-77
2023/12/23 06:22:38;;;;;;;0.10;0.10;;;10.70;87.00;;;;;;4899412;29;20389;-77
2023/12/23 06:25:04;;;;;;;0.10;0.10;;;10.60;87.10;;;;;;4882109;29;20470;-77
2023/12/23 06:27:30;;;;;;;0.10;0.10;;;10.70;87.10;;;;;;4896996;29;20025;-77
2023/12/23 06:29:55;;;;;;;0.10;0.10;;;10.70;87.10;;;;;;4898067;29;20535;-77
2023/12/23 06:32:21;;;;;;;0.10;0.10;;;10.70;87.00;;;;;;4878682;29;1102935;-77
2023/12/23 06:34:46;;;;;;;0.10;0.10;;;10.70;87.00;;;;;;4919172;29;20046;-77
2023/12/23 06:37:12;;;;;;;0.10;0.10;;;10.70;87.00;;;;;;4904109;29;20021;-77
2023/12/23 06:39:37;;;;;;;0.10;0.10;;;10.70;86.90;;;;;;4917474;29;20853;-77
2023/12/23 06:42:03;;;;;;;0.10;0.10;;;10.80;86.90;;;;;;4900064;29;20093;-77
2023/12/23 06:44:29;;;;;;;0.10;0.10;;;10.80;86.80;;;;;;4901179;29;20043;-77
2023/12/23 06:46:54;;;;;;;0.10;0.10;;;10.80;86.80;;;;;;4907101;29;20047;-77
2023/12/23 06:49:20;;;;;;;0.10;0.10;;;10.70;86.80;;;;;;4914266;29;20164;-77
2023/12/23 06:51:46;;;;;;;0.10;0.10;;;10.80;86.90;;;;;;4913569;29;20031;-77
2023/12/23 06:54:11;;;;;;;0.10;0.10;;;10.70;86.90;;;;;;4899875;29;20036;-78
2023/12/23 06:56:37;;;;;;;0.10;0.10;;;10.70;87.00;;;;;;4914130;29;20559;-80
2023/12/23 06:59:09;;;;;;;0.10;0.10;;;10.70;86.90;;;;;;4906091;29;20103;-76
2023/12/23 07:01:38;;;;;;;0.10;0.10;;;10.80;86.90;;;;;;4913838;29;20060;-78
2023/12/23 07:04:04;;;;;;;0.10;0.10;;;10.80;86.80;;;;;;4917065;29;20054;-78
2023/12/23 07:06:30;;;;;;;0.10;0.10;;;10.80;86.70;;;;;;4916568;29;20032;-79
2023/12/23 07:08:55;;;;;;;0.10;0.10;;;10.80;86.70;;;;;;4913823;29;20647;-78
2023/12/23 07:11:21;;;;;;;0.10;0.10;;;10.80;86.70;;;;;;4914878;29;20020;-78
2023/12/23 07:13:46;;;;;;;0.10;0.10;;;10.80;86.60;;;;;;4899371;29;20036;-85
2023/12/23 07:16:12;;;;;;;0.10;0.10;;;10.80;86.70;;;;;;4903480;29;20088;-79
2023/12/23 07:18:38;;;;;;;0.10;0.10;;;10.80;86.50;;;;;;4899363;29;20032;-80
2023/12/23 07:21:03;;;;;;;0.10;0.10;;;10.80;86.60;;;;;;4911162;29;20024;-80
2023/12/23 07:23:29;;;;;;;0.10;0.10;;;10.80;86.60;;;;;;4917190;29;20035;-81
2023/12/23 07:25:55;;;;;;;0.10;0.10;;;10.80;86.50;;;;;;4920200;29;20049;-81
2023/12/23 07:28:20;;;;;;;0.10;0.10;;;10.80;86.50;;;;;;4922343;29;20028;-81
2023/12/23 07:30:46;;;;;;;0.00;0.00;;;10.80;86.50;;;;;;4902775;29;20124;-81
2023/12/23 07:33:12;;;;;;;0.10;0.10;;;10.90;86.40;;;;;;4913039;29;20119;-81
2023/12/23 07:35:38;;;;;;;0.10;0.10;;;10.80;86.20;;;;;;4910052;29;20170;-81
2023/12/23 07:38:04;;;;;;;0.10;0.10;;;10.80;86.40;;;;;;4917047;29;20051;-81
2023/12/23 07:40:29;;;;;;;0.10;0.10;;;10.80;86.30;;;;;;4920264;29;20040;-81
2023/12/23 07:42:55;;;;;;;0.10;0.10;;;10.90;86.30;;;;;;4916058;29;20035;-82
2023/12/23 07:45:22;;;;;;;0.00;0.00;;;10.90;86.20;;;;;;4914872;29;20115;-81
2023/12/23 07:47:49;;;;;;;0.10;0.10;;;10.90;86.20;;;;;;4915105;29;20027;-85
2023/12/23 07:50:14;;;;;;;0.10;0.10;;;10.90;86.10;;;;;;4896792;29;20673;-84
2023/12/23 07:52:40;;;;;;;0.10;0.10;;;10.90;86.00;;;;;;4900294;29;20143;-85
2023/12/23 07:55:07;;;;;;;0.10;0.10;;;10.90;85.90;;;;;;4893401;29;20033;-82
2023/12/23 07:57:32;;;;;;;0.10;0.10;;;10.90;85.90;;;;;;4898765;29;20029;-81
2023/12/23 07:59:58;;;;;;;0.10;0.10;;;10.90;85.90;;;;;;4897733;29;20775;-81
2023/12/23 08:02:24;;;;;;;0.10;0.10;;;10.90;86.00;;;;;;4905439;29;20036;-81
2023/12/23 08:04:49;;;;;;;0.10;0.10;;;10.90;85.90;;;;;;4899878;29;20118;-80
2023/12/23 08:07:15;;;;;;;0.10;0.10;;;11.00;85.90;;;;;;4917429;29;20059;-80
2023/12/23 08:09:40;;;;;;;0.10;0.10;;;11.00;85.90;;;;;;4905090;29;20151;-81
2023/12/23 08:12:07;;;;;;;0.00;0.00;;;11.00;85.80;;;;;;4898743;29;20088;-81
2023/12/23 08:14:33;;;;;;;0.10;0.10;;;10.90;85.70;;;;;;4886770;29;20368;-81
2023/12/23 08:16:59;;;;;;;0.10;0.10;;;11.00;85.60;;;;;;4901880;29;20127;-81
2023/12/23 08:19:25;;;;;;;0.10;0.10;;;10.90;85.50;;;;;;4899453;29;20061;-81
2023/12/23 08:21:51;;;;;;;0.10;0.10;;;10.90;85.60;;;;;;4898404;29;20071;-81
2023/12/23 08:24:16;;;;;;;0.10;0.10;;;11.00;85.60;;;;;;4898279;29;20036;-80
2023/12/23 08:26:42;;;;;;;0.00;0.00;;;11.00;85.60;;;;;;4898704;29;20468;-81
2023/12/23 08:29:08;;;;;;;0.10;0.10;;;11.00;85.50;;;;;;4898605;29;20035;-81
2023/12/23 08:31:33;;;;;;;0.08;0.08;;;11.00;85.50;;;;;;4898391;29;20128;-81
2023/12/23 08:33:59;;;;;;;0.10;0.10;;;11.00;85.60;;;;;;4903135;29;20028;-81
2023/12/23 08:36:24;;;;;;;0.10;0.10;;;11.10;85.60;;;;;;4898695;29;20060;-81
2023/12/23 08:38:50;;;;;;;0.10;0.10;;;11.10;85.60;;;;;;4898436;29;20032;-81
2023/12/23 08:41:16;;;;;;;0.00;0.00;;;11.10;85.50;;;;;;4913732;29;20028;-80
2023/12/23 08:43:42;;;;;;;0.10;0.10;;;11.20;85.40;;;;;;4917425;29;20107;-80
2023/12/23 08:46:08;;;;;;;0.10;0.10;;;11.10;85.40;;;;;;4908391;29;20037;-81
2023/12/23 08:48:33;;;;;;;0.10;0.10;;;11.10;85.60;;;;;;4908988;29;20031;-79
2023/12/23 08:50:59;;;;;;;0.10;0.10;;;11.20;85.60;;;;;;4915794;29;20044;-82
2023/12/23 08:53:25;;;;;;;0.10;0.10;;;11.20;85.70;;;;;;4921931;29;20071;-82
2023/12/23 08:55:50;;;;;;;0.00;0.00;;;11.20;85.70;;;;;;4928822;29;20479;-82
2023/12/23 08:58:16;;;;;;;0.10;0.10;;;11.20;85.70;;;;;;4927870;29;20077;-82
2023/12/23 09:00:41;;;;;;;0.10;0.10;;;11.20;85.60;;;;;;4921272;29;20087;-83
2023/12/23 09:03:07;;;;;;;0.10;0.10;;;11.20;85.70;;;;;;4913466;29;20032;-82
2023/12/23 09:05:32;;;;;;;0.10;0.10;;;11.20;85.70;;;;;;4913356;29;20062;-82
2023/12/23 09:07:58;;;;;;;0.10;0.10;;;11.30;85.50;;;;;;4911842;29;20114;-82
2023/12/23 09:10:24;;;;;;;0.10;0.10;;;11.40;85.50;;;;;;4910501;29;20536;-82
2023/12/23 09:12:49;;;;;;;0.10;0.10;;;11.40;85.40;;;;;;4920542;29;20090;-82
2023/12/23 09:15:15;;;;;;;0.10;0.10;;;11.50;85.20;;;;;;4918480;29;20028;-82
2023/12/23 09:17:40;;;;;;;0.10;0.10;;;11.50;85.00;;;;;;4915916;29;20031;-82
2023/12/23 09:20:07;;;;;;;0.10;0.10;;;11.50;85.00;;;;;;4918733;29;20028;-82
2023/12/23 09:22:32;;;;;;;0.10;0.10;;;11.50;84.90;;;;;;4912442;29;20033;-82
2023/12/23 09:24:58;;;;;;;0.10;0.10;;;11.50;84.70;;;;;;4900012;29;20028;-82
2023/12/23 09:27:24;;;;;;;0.10;0.10;;;11.60;84.80;;;;;;4899941;29;20026;-82
2023/12/23 09:29:49;;;;;;;0.10;0.10;;;11.60;84.70;;;;;;4900456;29;20084;-82
2023/12/23 09:32:15;;;;;;;0.00;0.00;;;11.60;84.70;;;;;;4915273;29;20055;-82
2023/12/23 09:34:41;;;;;;;0.10;0.10;;;11.70;84.60;;;;;;4919914;29;20032;-82
2023/12/23 09:37:06;;;;;;;0.10;0.10;;;11.70;84.40;;;;;;4902998;29;20103;-82
2023/12/23 09:39:32;;;;;;;0.10;0.10;;;11.70;84.30;;;;;;4918678;29;20032;-82
2023/12/23 09:41:59;;;;;;;0.10;0.10;;;11.70;84.30;;;;;;4923245;29;20060;-82
2023/12/23 09:44:25;;;;;;;0.10;0.10;;;11.70;84.10;;;;;;4919559;29;20036;-82
2023/12/23 09:46:51;;;;;;;0.10;0.10;;;11.70;84.10;;;;;;4915732;29;20024;-81
2023/12/23 09:49:17;;;;;;;0.10;0.10;;;11.80;84.20;;;;;;4919063;29;20040;-85
2023/12/23 09:51:44;;;;;;;0.10;0.10;;;11.70;84.20;;;;;;4918564;29;20509;-82
2023/12/23 09:54:19;;;;;;;0.10;0.10;;;11.80;83.90;;;;;;4919357;29;20135;-81
2023/12/23 09:56:47;;;;;;;0.05;0.05;;;11.80;84.10;;;;;;4907128;29;20036;-82
2023/12/23 09:59:12;;;;;;;0.10;0.10;;;11.80;84.00;;;;;;4900780;29;20031;-82
2023/12/23 10:01:38;;;;;;;0.10;0.10;;;11.80;83.80;;;;;;4899896;29;20111;-82
2023/12/23 10:04:03;;;;;;;0.10;0.10;;;11.80;83.80;;;;;;4917716;29;20028;-82
2023/12/23 10:06:29;;;;;;;0.10;0.10;;;11.90;83.70;;;;;;4919842;29;20024;-81
2023/12/23 10:08:54;;;;;;;0.03;0.03;;;11.90;83.60;;;;;;4908245;29;20045;-82
2023/12/23 10:11:20;;;;;;;0.10;0.10;;;11.90;83.60;;;;;;4900602;29;20032;-81
2023/12/23 10:13:46;;;;;;;0.13;0.10;;;12.00;83.50;;;;;;4915118;29;20096;-82
2023/12/23 10:16:14;;;;;;;0.00;0.00;;;12.00;83.50;;;;;;4919318;29;20080;-78
2023/12/23 10:18:40;;;;;;;0.10;0.10;;;12.00;83.20;;;;;;4918180;29;20103;-79
2023/12/23 10:21:06;;;;;;;0.10;0.10;;;12.00;83.30;;;;;;4913061;29;20032;-80
2023/12/23 10:23:33;;;;;;;0.10;0.10;;;12.10;83.40;;;;;;4916659;29;20059;-80
2023/12/23 10:25:59;;;;;;;0.10;0.10;;;12.10;83.30;;;;;;4900426;29;20035;-82
2023/12/23 10:28:25;;;;;;;0.10;0.10;;;12.10;83.40;;;;;;4883459;29;20033;-82
2023/12/23 10:30:54;;;;;;;0.10;0.10;;;12.10;83.40;;;;;;4902830;29;20055;-78
2023/12/23 10:33:24;;;;;;;0.10;0.10;;;12.10;83.30;;;;;;4911427;29;20032;-83
2023/12/23 10:35:50;;;;;;;0.10;0.10;;;12.10;83.20;;;;;;4898020;29;20069;-80
2023/12/23 10:38:22;;;;;;;0.10;0.10;;;12.10;83.40;;;;;;4900322;29;20492;-85
2023/12/23 10:41:27;;;;;;;0.10;0.10;;;12.10;83.40;;;;;;4901415;29;20028;-81
2023/12/23 10:43:54;;;;;;;0.10;0.10;;;12.10;83.60;;;;;;4865923;29;20044;-78
2023/12/23 10:46:21;;;;;;;0.10;0.10;;;12.10;83.30;;;;;;4901155;29;20046;-78
2023/12/23 10:48:47;;;;;;;0.10;0.10;;;12.20;83.60;;;;;;4901056;29;20036;-78
2023/12/23 10:51:15;;;;;;;0.10;0.10;;;12.20;83.40;;;;;;4917909;29;20028;-81
2023/12/23 10:53:41;;;;;;;0.10;0.10;;;12.20;83.50;;;;;;4901658;29;20032;-76
2023/12/23 10:56:09;;;;;;;0.10;0.10;;;12.10;83.60;;;;;;4906215;29;20024;-76
2023/12/23 10:58:35;;;;;;;0.10;0.10;;;12.10;83.80;;;;;;4918299;29;20677;-76
2023/12/23 11:01:02;;;;;;;0.10;0.10;;;12.10;84.00;;;;;;4903033;29;20028;-76
2023/12/23 11:03:31;;;;;;;0.10;0.10;;;12.10;84.10;;;;;;4910140;29;20116;-76
2023/12/23 11:05:57;;;;;;;0.10;0.10;;;12.20;84.20;;;;;;4899525;29;20033;-76
2023/12/23 11:08:25;;;;;;;0.10;0.10;;;12.20;84.30;;;;;;4903925;29;20062;-76
2023/12/23 11:10:51;;;;;;;0.10;0.10;;;12.20;84.30;;;;;;4916071;29;20492;-76
2023/12/23 11:13:19;;;;;;;0.10;0.10;;;12.20;84.30;;;;;;4918258;29;20039;-76
2023/12/23 11:15:46;;;;;;;0.10;0.10;;;12.20;84.30;;;;;;4915320;29;20131;-76
2023/12/23 11:18:12;;;;;;;0.10;0.10;;;12.30;84.40;;;;;;4918067;29;20031;-76
2023/12/23 11:20:41;;;;;;;0.10;0.10;;;12.30;84.40;;;;;;4918326;29;20056;-76
2023/12/23 11:23:29;;;;;;;0.10;0.10;;;12.30;84.50;;;;;;4907281;29;20092;-76
2023/12/23 11:25:55;;;;;;;0.10;0.10;;;12.40;84.40;;;;;;4897992;29;20047;-76
2023/12/23 11:28:22;;;;;;;0.10;0.10;;;12.50;84.20;;;;;;4882388;29;20108;-76
2023/12/23 11:30:47;;;;;;;0.10;0.10;;;12.40;84.10;;;;;;4898753;29;20491;-76
2023/12/23 11:33:14;;;;;;;0.10;0.10;;;12.40;84.10;;;;;;4903594;29;20074;-76
2023/12/23 11:35:46;;;;;;;0.10;0.10;;;12.40;84.10;;;;;;4899226;29;20092;-76
2023/12/23 11:38:13;;;;;;;0.10;0.10;;;12.40;84.00;;;;;;4897282;29;20036;-76
2023/12/23 11:40:39;;;;;;;0.10;0.10;;;12.50;83.90;;;;;;4914958;29;20175;-76
2023/12/23 11:43:05;;;;;;;0.10;0.10;;;12.50;83.90;;;;;;4913657;29;20071;-75
2023/12/23 11:45:30;;;;;;;0.10;0.10;;;12.50;83.90;;;;;;4899207;29;20411;-76
2023/12/23 11:47:57;;;;;;;0.10;0.10;;;12.60;83.90;;;;;;4902805;29;20107;-75
2023/12/23 11:50:22;;;;;;;0.10;0.10;;;12.70;83.90;;;;;;4917906;29;20135;-77
2023/12/23 11:52:48;;;;;;;0.00;0.00;;;12.70;83.80;;;;;;4908867;29;20116;-76
2023/12/23 11:55:16;;;;;;;0.00;0.00;;;12.80;83.70;;;;;;4919471;29;20384;-77
2023/12/23 11:57:42;;;;;;;0.10;0.10;;;12.80;83.70;;;;;;4919470;29;20020;-76
2023/12/23 12:00:08;;;;;;;0.10;0.10;;;12.90;83.50;;;;;;4906498;29;20032;-76
2023/12/23 12:02:34;;;;;;;0.10;0.10;;;12.90;83.60;;;;;;4905787;29;20047;-76
2023/12/23 12:05:00;;;;;;;0.03;0.03;;;12.90;83.50;;;;;;4919515;29;20035;-76
2023/12/23 12:07:26;;;;;;;0.10;0.10;;;12.90;83.60;;;;;;4905696;29;20036;-76
2023/12/23 12:09:51;;;;;;;0.00;0.00;;;12.90;83.40;;;;;;4899352;29;20021;-76
2023/12/23 12:12:17;;;;;;;0.00;0.00;;;12.90;83.60;;;;;;4900377;29;20040;-76
2023/12/23 12:14:43;;;;;;;0.10;0.10;;;13.00;83.50;;;;;;4900714;29;20029;-76
2023/12/23 12:17:09;;;;;;;0.10;0.10;;;13.00;83.50;;;;;;4900737;29;20040;-76
2023/12/23 12:19:35;;;;;;;0.10;0.10;;;13.00;83.60;;;;;;4886651;29;20124;-76
2023/12/23 12:22:03;;;;;;;0.10;0.10;;;13.20;83.40;;;;;;4883559;29;20032;-76
2023/12/23 12:24:29;;;;;;;0.03;0.03;;;13.10;83.30;;;;;;4903231;29;20088;-76
2023/12/23 12:26:57;;;;;;;0.10;0.10;;;13.10;82.90;;;;;;4907613;29;20043;-76
2023/12/23 12:29:23;;;;;;;0.10;0.10;;;13.20;83.00;;;;;;4904331;29;20456;-76
2023/12/23 12:31:57;;;;;;;0.10;0.10;;;13.20;82.90;;;;;;4904332;29;20059;-76
2023/12/23 12:34:23;;;;;;;0.10;0.10;;;13.20;82.60;;;;;;4904300;29;20024;-76
2023/12/23 12:36:51;;;;;;;0.10;0.10;;;13.30;82.50;;;;;;4887272;29;20029;-76
2023/12/23 12:39:20;;;;;;;0.10;0.10;;;13.40;82.40;;;;;;4914828;29;20040;-76
2023/12/23 12:41:50;;;;;;;0.10;0.10;;;13.40;82.30;;;;;;4932428;29;20071;-76
2023/12/23 12:44:16;;;;;;;0.10;0.10;;;13.40;82.00;;;;;;4904017;29;20566;-76
2023/12/23 12:46:44;;;;;;;0.10;0.10;;;13.40;81.90;;;;;;4902741;29;20024;-76
2023/12/23 12:49:11;;;;;;;0.10;0.10;;;13.30;82.10;;;;;;4918052;29;20499;-76
2023/12/23 12:51:36;;;;;;;0.10;0.10;;;13.40;81.80;;;;;;4907805;29;20119;-76
2023/12/23 12:54:04;;;;;;;0.10;0.10;;;13.40;81.30;;;;;;4903960;29;20116;-76
2023/12/23 12:56:30;;;;;;;0.00;0.00;;;13.30;81.40;;;;;;4903434;29;20025;-76
2023/12/23 12:58:56;;;;;;;0.00;0.00;;;13.20;81.30;;;;;;4886968;29;20028;-76
2023/12/23 13:01:22;;;;;;;0.10;0.10;;;13.30;81.50;;;;;;4887000;29;20029;-76
2023/12/23 13:03:48;;;;;;;0.10;0.10;;;13.30;81.60;;;;;;4918272;29;20028;-76
2023/12/23 13:06:14;;;;;;;0.10;0.10;;;13.30;81.40;;;;;;4922551;29;20084;-76
2023/12/23 13:08:39;;;;;;;0.10;0.10;;;13.40;81.30;;;;;;4921497;29;20069;-76
2023/12/23 13:11:05;;;;;;;0.10;0.10;;;13.40;81.00;;;;;;4914901;29;20036;-76
2023/12/23 13:13:31;;;;;;;0.10;0.10;;;13.50;81.10;;;;;;4901915;29;20384;-76
2023/12/23 13:15:56;;;;;;;0.10;0.10;;;13.60;80.80;;;;;;4917802;29;20035;-76
2023/12/23 13:18:22;;;;;;;0.10;0.10;;;13.60;80.30;;;;;;4902176;29;20422;-76
2023/12/23 13:20:48;;;;;;;0.10;0.10;;;13.60;80.00;;;;;;4903500;29;20173;-76
2023/12/23 13:23:17;;;;;;;0.10;0.10;;;13.60;79.90;;;;;;4903132;29;20032;-76
2023/12/23 13:25:45;;;;;;;0.10;0.10;;;13.50;80.00;;;;;;4921895;29;20072;-77
2023/12/23 13:28:10;;;;;;;0.10;0.10;;;13.50;79.40;;;;;;4922028;29;20035;-76
2023/12/23 13:30:36;;;;;;;0.10;0.10;;;13.40;79.60;;;;;;4922031;29;20044;-76
2023/12/23 13:33:02;;;;;;;0.10;0.10;;;13.50;79.50;;;;;;4920269;29;20044;-76
2023/12/23 13:35:28;;;;;;;0.10;0.10;;;13.70;79.40;;;;;;4903555;29;20027;-76
2023/12/23 13:37:54;;;;;;;0.10;0.10;;;13.80;79.00;;;;;;4902962;29;20124;-76
2023/12/23 13:40:20;;;;;;;0.10;0.10;;;14.00;79.10;;;;;;4913219;29;20554;-76
2023/12/23 13:42:46;;;;;;;0.05;0.05;;;14.10;78.60;;;;;;4903205;29;20028;-77
2023/12/23 13:45:12;;;;;;;0.00;0.00;;;14.00;78.40;;;;;;4902034;29;20084;-76
2023/12/23 13:47:39;;;;;;;0.10;0.10;;;13.80;77.60;;;;;;4905130;29;20111;-76
2023/12/23 13:50:07;;;;;;;0.00;0.00;;;13.80;78.10;;;;;;4916330;29;20036;-76
2023/12/23 13:52:33;;;;;;;0.00;0.00;;;13.70;78.10;;;;;;4902882;29;20064;-76
2023/12/23 13:55:03;;;;;;;0.10;0.10;;;13.60;78.30;;;;;;4896136;29;20056;-76
2023/12/23 13:57:29;;;;;;;0.00;0.00;;;13.50;78.40;;;;;;4902683;29;20028;-76
2023/12/23 13:59:55;;;;;;;0.10;0.10;;;13.30;78.20;;;;;;4886160;29;20028;-76
2023/12/23 14:02:21;;;;;;;0.08;0.08;;;13.30;78.20;;;;;;4906017;29;20035;-76
2023/12/23 14:04:46;;;;;;;0.10;0.10;;;13.30;78.40;;;;;;4903939;29;20047;-76
2023/12/23 14:07:12;;;;;;;0.10;0.10;;;13.40;78.30;;;;;;4921514;29;20071;-76
2023/12/23 14:09:37;;;;;;;0.10;0.10;;;13.70;78.20;;;;;;4921403;29;20028;-76
2023/12/23 14:12:04;;;;;;;0.00;0.00;;;13.70;78.10;;;;;;4912626;29;20709;-76
2023/12/23 14:14:29;;;;;;;0.10;0.10;;;13.60;77.70;;;;;;4902438;29;20120;-77
2023/12/23 14:16:55;;;;;;;0.00;0.00;;;13.70;78.20;;;;;;4902421;29;20064;-76
2023/12/23 14:19:20;;;;;;;0.10;0.10;;;13.60;77.80;;;;;;4902128;29;20520;-76
2023/12/23 14:21:46;;;;;;;0.00;0.00;;;13.60;78.00;;;;;;4902521;29;20037;-76
2023/12/23 14:24:12;;;;;;;0.10;0.10;;;13.50;77.90;;;;;;4901117;29;20116;-76
2023/12/23 14:26:37;;;;;;;0.00;0.00;;;13.50;78.10;;;;;;4901233;29;20056;-76
2023/12/23 14:29:03;;;;;;;0.00;0.00;;;13.40;78.10;;;;;;4901794;29;20436;-76
2023/12/23 14:31:29;;;;;;;0.00;0.00;;;13.30;78.00;;;;;;4911500;29;20104;-76
2023/12/23 14:33:54;;;;;;;0.00;0.00;;;13.30;78.30;;;;;;4912486;29;20492;-76
2023/12/23 14:36:20;;;;;;;0.00;0.00;;;13.20;78.50;;;;;;4902170;29;20032;-76
2023/12/23 14:38:46;;;;;;;0.10;0.10;;;13.20;78.70;;;;;;4896572;29;20028;-76
2023/12/23 14:41:13;;;;;;;0.10;0.10;;;13.20;79.00;;;;;;4926411;29;20423;-76
2023/12/23 14:43:39;;;;;;;0.10;0.10;;;13.10;79.20;;;;;;4939582;29;20438;-76
2023/12/23 14:46:04;;;;;;;0.00;0.00;;;13.10;79.10;;;;;;4915843;29;20036;-76
2023/12/23 14:48:30;;;;;;;0.10;0.10;;;13.20;79.30;;;;;;4916829;29;20043;-76
2023/12/23 14:50:56;;;;;;;0.10;0.10;;;13.20;78.70;;;;;;4903823;29;20067;-76
2023/12/23 14:53:21;;;;;;;0.10;0.10;;;13.20;78.70;;;;;;4920585;29;20020;-76
2023/12/23 14:55:47;;;;;;;0.10;0.10;;;13.20;78.50;;;;;;4907275;29;20048;-76
2023/12/23 14:58:13;;;;;;;0.00;0.00;;;13.00;78.20;;;;;;4901560;29;20957;-76
2023/12/23 15:00:39;;;;;;;0.10;0.10;;;13.00;78.30;;;;;;4907308;29;20028;-76
2023/12/23 15:03:05;;;;;;;0.00;0.00;;;13.00;78.50;;;;;;4901155;29;20036;-76
2023/12/23 15:05:31;;;;;;;0.10;0.10;;;13.10;78.60;;;;;;4903375;29;20070;-76
2023/12/23 15:07:56;;;;;;;0.05;0.05;;;13.10;78.70;;;;;;4903122;29;20036;-76
2023/12/23 15:10:22;;;;;;;0.00;0.00;;;13.10;78.60;;;;;;4918618;29;20056;-76
2023/12/23 15:12:48;;;;;;;0.00;0.00;;;13.20;78.70;;;;;;4901363;29;20024;-76
2023/12/23 15:15:13;;;;;;;0.08;0.08;;;13.10;78.80;;;;;;4884359;29;20032;-76
2023/12/23 15:17:39;;;;;;;0.10;0.10;;;13.20;79.10;;;;;;4901240;29;20499;-76
2023/12/23 15:20:05;;;;;;;0.10;0.10;;;13.20;79.00;;;;;;4902234;29;21003;-76
2023/12/23 15:22:31;;;;;;;0.00;0.00;;;13.20;79.00;;;;;;4903227;29;20079;-76
2023/12/23 15:24:57;;;;;;;0.10;0.10;;;13.10;79.00;;;;;;4919978;29;20073;-76
2023/12/23 15:27:22;;;;;;;0.10;0.10;;;13.10;79.40;;;;;;4920043;29;20518;-76
2023/12/23 15:29:48;;;;;;;0.10;0.10;;;13.10;79.50;;;;;;4912819;29;20567;-76
2023/12/23 15:32:14;;;;;;;0.10;0.10;;;13.20;79.40;;;;;;4915434;29;20064;-77
2023/12/23 15:34:40;;;;;;;0.10;0.10;;;13.20;79.40;;;;;;4919968;29;20043;-76
2023/12/23 15:37:07;;;;;;;0.10;0.10;;;13.20;79.40;;;;;;4906455;29;20043;-76
2023/12/23 15:39:33;;;;;;;0.10;0.10;;;13.20;79.30;;;;;;4900960;29;20028;-76
2023/12/23 15:41:59;;;;;;;0.10;0.10;;;13.20;79.50;;;;;;4929331;29;20542;-76
2023/12/23 15:44:24;;;;;;;0.00;0.00;;;13.10;79.40;;;;;;4900895;29;20042;-76
2023/12/23 15:46:50;;;;;;;0.10;0.10;;;13.10;79.50;;;;;;4915688;29;20115;-76
2023/12/23 15:49:16;;;;;;;0.10;0.10;;;13.00;79.10;;;;;;4915458;29;20467;-76
2023/12/23 15:51:41;;;;;;;0.10;0.10;;;13.00;79.10;;;;;;4919634;29;20024;-76
2023/12/23 15:54:09;;;;;;;0.10;0.10;;;13.00;79.00;;;;;;4907512;29;20071;-76
2023/12/23 15:56:40;;;;;;;0.00;0.00;;;13.00;79.20;;;;;;4900707;29;20191;-76
2023/12/23 15:59:06;;;;;;;0.10;0.10;;;12.90;79.10;;;;;;4899803;29;20459;-76
2023/12/23 16:01:32;;;;;;;0.10;0.10;;;12.90;79.20;;;;;;4900550;29;20111;-76
2023/12/23 16:03:58;;;;;;;0.00;0.00;;;12.90;79.10;;;;;;4916629;29;20040;-76
2023/12/23 16:06:23;;;;;;;0.00;0.00;;;12.90;79.00;;;;;;4919565;29;20035;-76
2023/12/23 16:08:49;;;;;;;0.10;0.10;;;12.90;78.80;;;;;;4919456;29;20057;-76
2023/12/23 16:11:15;;;;;;;0.00;0.00;;;12.90;79.00;;;;;;4903694;29;20037;-76
2023/12/23 16:13:43;;;;;;;0.10;0.10;;;12.90;79.10;;;;;;4900226;29;20032;-76
2023/12/23 16:16:09;;;;;;;0.10;0.10;;;12.90;78.80;;;;;;4900548;29;20484;-76
2023/12/23 16:18:35;;;;;;;0.10;0.10;;;12.90;78.90;;;;;;4900395;29;20029;-76
2023/12/23 16:21:01;;;;;;;0.10;0.10;;;12.80;79.00;;;;;;4900567;29;20057;-76
2023/12/23 16:23:26;;;;;;;0.10;0.10;;;12.90;79.00;;;;;;4900308;29;20044;-76
2023/12/23 16:25:52;;;;;;;0.10;0.10;;;12.90;79.10;;;;;;4903867;29;20028;-76
2023/12/23 16:28:17;;;;;;;0.05;0.05;;;12.80;79.20;;;;;;4900356;29;20031;-76
2023/12/23 16:30:43;;;;;;;0.10;0.10;;;12.80;79.20;;;;;;4903728;29;20140;-76
2023/12/23 16:33:09;;;;;;;0.10;0.10;;;12.80;79.40;;;;;;4909968;29;20028;-76
2023/12/23 16:35:34;;;;;;;0.10;0.10;;;12.90;79.30;;;;;;4919262;29;20043;-76
2023/12/23 16:38:00;;;;;;;0.00;0.00;;;12.80;79.40;;;;;;4911567;29;20021;-76
2023/12/23 16:40:25;;;;;;;0.10;0.10;;;12.80;79.30;;;;;;4923969;29;20060;-76
2023/12/23 16:42:52;;;;;;;0.10;0.10;;;12.80;79.50;;;;;;4936765;29;20032;-76
2023/12/23 16:45:18;;;;;;;0.10;0.10;;;12.80;79.50;;;;;;4938143;29;20016;-76
2023/12/23 16:47:44;;;;;;;0.10;0.10;;;12.80;79.50;;;;;;4919357;29;20039;-76
2023/12/23 16:50:12;;;;;;;0.10;0.10;;;12.80;79.80;;;;;;4919119;29;20534;-76
2023/12/23 16:52:39;;;;;;;0.05;0.05;;;12.80;79.70;;;;;;4913863;29;20116;-76
2023/12/23 16:55:05;;;;;;;0.10;0.10;;;12.80;79.70;;;;;;4900189;29;20080;-76
2023/12/23 16:57:31;;;;;;;0.10;0.10;;;12.80;79.90;;;;;;4899922;29;20028;-76
2023/12/23 16:59:57;;;;;;;0.10;0.10;;;12.80;80.00;;;;;;4914698;29;20112;-76
2023/12/23 17:02:22;;;;;;;0.10;0.10;;;12.80;79.90;;;;;;4907323;29;20052;-76
2023/12/23 17:04:48;;;;;;;0.10;0.10;;;12.80;80.00;;;;;;4918645;29;20032;-76
2023/12/23 17:07:14;;;;;;;0.10;0.10;;;12.80;80.00;;;;;;4912593;29;20037;-76
2023/12/23 17:09:40;;;;;;;0.10;0.10;;;12.80;80.10;;;;;;4901232;29;20029;-76
2023/12/23 17:12:06;;;;;;;0.10;0.10;;;12.80;80.20;;;;;;4903506;29;20040;-76
2023/12/23 17:14:31;;;;;;;0.10;0.10;;;12.80;80.30;;;;;;4915811;29;20111;-76
2023/12/23 17:16:57;;;;;;;0.10;0.10;;;12.80;80.20;;;;;;4910548;29;20083;-76
2023/12/23 17:19:23;;;;;;;0.10;0.10;;;12.80;80.30;;;;;;4922254;29;20447;-75
2023/12/23 17:21:48;;;;;;;0.00;0.00;;;12.80;80.30;;;;;;4922289;29;20040;-75
2023/12/23 17:24:14;;;;;;;0.10;0.10;;;12.80;80.30;;;;;;4918772;29;20032;-80
2023/12/23 17:26:40;;;;;;;0.00;0.00;;;12.70;80.30;;;;;;4903617;29;20028;-86
2023/12/23 17:29:05;;;;;;;0.10;0.10;;;12.70;80.30;;;;;;4918141;29;20104;-89
2023/12/23 17:31:31;;;;;;;0.10;0.10;;;12.70;80.30;;;;;;4910965;29;20051;-86
2023/12/23 17:33:57;;;;;;;0.00;0.00;;;12.70;80.20;;;;;;4915663;29;20035;-85
2023/12/23 17:36:23;;;;;;;0.05;0.05;;;12.60;80.20;;;;;;4906286;29;20406;-87
2023/12/23 17:38:50;;;;;;;0.00;0.00;;;12.60;80.30;;;;;;4918553;29;20059;-79
2023/12/23 17:41:16;;;;;;;0.10;0.10;;;12.60;80.00;;;;;;4920454;29;20406;-78
2023/12/23 17:43:42;;;;;;;0.03;0.03;;;12.60;80.00;;;;;;4920074;29;20079;-78
2023/12/23 17:46:08;;;;;;;0.00;0.00;;;12.60;80.10;;;;;;4921572;29;20036;-77
2023/12/23 17:48:34;;;;;;;0.10;0.10;;;12.60;80.40;;;;;;4916557;29;20071;-76
2023/12/23 17:50:59;;;;;;;0.10;0.10;;;12.60;79.90;;;;;;4918904;29;20071;-77
2023/12/23 17:53:25;;;;;;;0.10;0.10;;;12.60;80.10;;;;;;4919670;29;20032;-76
2023/12/23 17:55:54;;;;;;;0.10;0.10;;;12.70;80.10;;;;;;4919359;29;20024;-77
2023/12/23 17:58:20;;;;;;;0.10;0.10;;;12.60;79.60;;;;;;4922974;29;20040;-77
2023/12/23 18:00:46;;;;;;;0.10;0.10;;;12.60;79.70;;;;;;4918697;29;20039;-78
2023/12/23 18:03:17;;;;;;;0.10;0.10;;;12.60;79.30;;;;;;4926415;29;20111;-78
2023/12/23 18:05:43;;;;;;;0.10;0.10;;;12.50;79.30;;;;;;4919005;29;20140;-82
2023/12/23 18:08:10;;;;;;;0.05;0.05;;;12.60;79.20;;;;;;4913837;29;21594;-78
2023/12/23 18:10:35;;;;;;;0.10;0.10;;;12.50;79.10;;;;;;4934603;29;20038;-80
2023/12/23 18:13:02;;;;;;;0.10;0.10;;;12.50;79.20;;;;;;4933901;29;20020;-82